ADDS TAF Board (Experimental) INFO Settings
IDs: Format: Expanded Condensed

KFLL - Ft Lauderdale-Hollyw, FL, US

Issued at 1721 UTC 24 Aug 2016
Updated at 1939 UTC 24 Aug 2016
Time1853Z 24/20Z 24/21Z 24/22Z 24/23Z 25/00Z 25/01Z 25/02Z 25/03Z 25/04Z 25/05Z 25/06Z 25/07Z 25/08Z
Type OBS PRVL PRVL PRVL PRVL PRVL PRVL PRVL PRVL PRVL PRVL PRVL PRVL PRVL
VIS 10 >6 >6 >6 >6 >6 >6 >6 >6 >6 >6 >6 >6 >6
CIG 250 40 40 40 40 -- -- -- -- -- -- -- -- --
Cover OVC BKN BKN BKN BKN SCT SCT SCT SCT SCT SCT SCT SCT SCT
FltCat VFR VFR VFR VFR VFR VFR VFR VFR VFR VFR VFR VFR VFR VFR
WX -- VCTS VCTS VCTS VCTS VCSH VCSH VCSH VCSH VCSH VCSH VCSH VCSH VCSH
WDir 70 60 60 60 60 70 70 70 70 70 70 70 70 70
WSpd 6 13 13 13 13 5 5 5 5 5 5 5 5 5
WGst -- -- -- -- -- -- -- -- -- -- -- -- -- --
R10/28
XWnd 2 7 7 7 7 2 2 2 2 2 2 2 2 2
HWnd 6 11 11 11 11 5 5 5 5 5 5 5 5 5

Raw TAF
KFLL 241721Z 2418/2518 04009KT P6SM VCSH BKN040 BKN120
  FM241900 06013KT P6SM VCTS SCT025CB BKN040 BKN250
  FM250000 07005KT P6SM VCSH SCT035
  FM251400 07010KT P6SM VCTS SCT035CB


Raw METAR
KFLL 241853Z 07006KT 10SM FEW034 OVC250 30/25 A3002 RMK AO2 RAB22E42 SLP167 P0000 T03000250
KFLL 241753Z 04005KT 10SM FEW025 BKN120 BKN250 29/25 A3003 RMK AO2 RAB20E40 SLP170 P0001 60003 T02940250 10328 20267 58011
KFLL 241653Z 03009KT 10SM FEW022 32/26 A3005 RMK AO2 RAE22 SLP176 P0000 T03220256

METAR Board
Radar Display
Forecast Discussion

TAF Board Legend

Potential Impact
Threat None Slight Moderate High
Visibility (sm) ≥5.1 5.1>X≥3 3>X≥1 <1
Ceiling (100 ft) ≥30.1 30.1>X≥10 10>X≥5 <5
Wind Speed (kt) <10 10≤X<20 20≤X<30 ≥30
Wind Gust (kt) <15 15≤X<25 25≤X<35 ≥35
Weather No Wx Reported VCTS,-TS,-FZRA,SN TS,FZRA +TS,+FZRA,+SN